createdAt,value
2019-05-09T00:01:43.994Z,0.90
2019-05-09T00:04:14.019Z,0.80
2019-05-09T00:06:44.128Z,0.70
2019-05-09T00:09:14.133Z,0.83
2019-05-09T00:11:44.033Z,0.90
2019-05-09T00:14:13.782Z,0.80
2019-05-09T00:16:44.014Z,0.90
2019-05-09T00:19:14.031Z,0.87
2019-05-09T00:21:45.476Z,0.80
2019-05-09T00:24:15.600Z,0.77
2019-05-09T00:26:46.084Z,0.80
2019-05-09T00:29:21.730Z,0.70
2019-05-09T00:32:11.057Z,0.87
2019-05-09T00:34:59.780Z,0.73
2019-05-09T00:37:47.186Z,0.80
2019-05-09T00:40:17.192Z,0.70
2019-05-09T00:42:47.675Z,0.90
2019-05-09T00:45:28.120Z,0.70
2019-05-09T00:47:58.247Z,0.70
2019-05-09T00:50:29.587Z,0.73
2019-05-09T00:53:00.055Z,0.60
2019-05-09T00:55:30.423Z,0.70
2019-05-09T00:58:00.425Z,0.63
2019-05-09T01:00:30.189Z,0.60
2019-05-09T01:03:00.793Z,0.70
2019-05-09T01:05:30.920Z,0.60
2019-05-09T01:08:04.235Z,0.70
2019-05-09T01:10:34.324Z,0.80
2019-05-09T01:13:04.292Z,0.60
2019-05-09T01:15:34.057Z,0.60
2019-05-09T01:18:04.605Z,0.60
2019-05-09T01:20:34.546Z,0.73
2019-05-09T01:23:04.911Z,0.70
2019-05-09T01:25:34.676Z,1.00
2019-05-09T01:28:04.441Z,0.83
2019-05-09T01:30:34.447Z,0.70
2019-05-09T01:33:24.183Z,0.80
2019-05-09T01:35:54.259Z,0.73
2019-05-09T01:38:24.860Z,0.70
2019-05-09T01:40:54.504Z,0.70
2019-05-09T01:43:24.473Z,0.60
2019-05-09T01:45:54.755Z,0.80
2019-05-09T01:48:24.758Z,0.60
2019-05-09T01:50:55.243Z,0.57
2019-05-09T01:53:30.528Z,0.60
2019-05-09T01:56:03.427Z,0.70
2019-05-09T01:58:34.290Z,0.60
2019-05-09T02:01:06.783Z,0.77
2019-05-09T02:03:36.907Z,0.87
2019-05-09T02:06:07.032Z,0.70
2019-05-09T02:08:37.159Z,0.77
2019-05-09T02:11:07.283Z,0.67
2019-05-09T02:13:37.406Z,0.70
2019-05-09T02:16:27.931Z,0.80
2019-05-09T02:19:07.777Z,0.60
2019-05-09T02:21:38.022Z,0.70
2019-05-09T02:24:08.386Z,0.53
2019-05-09T02:26:38.032Z,0.80
2019-05-09T02:29:08.037Z,0.70
2019-05-09T02:31:39.246Z,0.67
2019-05-09T02:34:09.248Z,1.13
2019-05-09T02:36:39.253Z,0.70
2019-05-09T02:44:09.528Z,0.80
2019-05-09T02:46:49.302Z,0.60
2019-05-09T02:49:19.334Z,0.77
2019-05-09T02:51:49.479Z,0.60
2019-05-09T02:54:19.325Z,0.90
2019-05-09T02:56:49.574Z,0.90
2019-05-09T02:59:44.577Z,0.90
2019-05-09T03:02:33.424Z,1.00
2019-05-09T03:05:03.544Z,0.90
2019-05-09T03:07:52.170Z,0.82
2019-05-09T03:10:23.478Z,0.80
2019-05-09T03:12:53.598Z,1.00
2019-05-09T03:15:23.849Z,2.50
2019-05-09T03:17:54.206Z,2.60
2019-05-09T03:20:39.100Z,3.40
2019-05-09T03:23:09.308Z,1.50
2019-05-09T03:25:40.759Z,2.10
2019-05-09T03:28:18.611Z,2.60
2019-05-09T03:30:50.512Z,2.45
2019-05-09T03:33:20.519Z,1.70
2019-05-09T03:35:50.642Z,2.20
2019-05-09T03:38:20.284Z,2.40
2019-05-09T03:40:50.770Z,1.70
2019-05-09T03:43:20.534Z,0.70
2019-05-09T03:45:58.498Z,0.90
2019-05-09T03:48:33.988Z,1.00
2019-05-09T03:51:04.709Z,1.20
2019-05-09T03:53:35.434Z,1.30
2019-05-09T03:56:08.078Z,1.70
2019-05-09T03:58:38.924Z,2.20
2019-05-09T04:01:10.890Z,2.43
2019-05-09T04:03:40.255Z,2.90
2019-05-09T04:06:10.499Z,4.10
2019-05-09T04:08:40.504Z,4.00
2019-05-09T04:11:10.510Z,3.77
2019-05-09T04:13:47.654Z,5.05
2019-05-09T04:16:19.110Z,4.75
2019-05-09T04:18:49.402Z,5.28
2019-05-09T04:21:19.889Z,3.80
2019-05-09T04:23:49.892Z,3.70
2019-05-09T04:26:44.738Z,3.75
2019-05-09T04:29:14.502Z,3.40
2019-05-09T04:31:44.506Z,4.80
2019-05-09T04:34:14.751Z,4.65
2019-05-09T04:36:44.515Z,3.42
2019-05-09T04:39:20.955Z,3.30
2019-05-09T04:41:48.730Z,3.50
2019-05-09T04:44:32.290Z,3.70
2019-05-09T04:47:03.692Z,3.67
2019-05-09T04:49:39.606Z,2.98
2019-05-09T04:52:07.672Z,1.80
2019-05-09T04:54:38.550Z,2.20
2019-05-09T04:57:08.198Z,2.10
2019-05-09T04:59:38.800Z,1.90
2019-05-09T05:02:28.123Z,1.62
2019-05-09T05:04:58.668Z,1.20
2019-05-09T05:08:03.901Z,1.20
2019-05-09T05:10:33.392Z,1.10
2019-05-09T05:13:02.503Z,0.90
2019-05-09T05:15:31.697Z,0.90
2019-05-09T05:18:00.852Z,0.80
2019-05-09T05:20:31.100Z,0.95
2019-05-09T05:23:08.215Z,0.70
2019-05-09T05:25:38.319Z,0.60
2019-05-09T05:28:08.607Z,0.50
2019-05-09T05:30:38.550Z,0.70
2019-05-09T05:33:28.848Z,0.70
2019-05-09T05:36:00.989Z,0.70
2019-05-09T05:38:31.005Z,0.70
2019-05-09T05:41:00.729Z,0.70
2019-05-09T05:43:40.500Z,0.70
2019-05-09T05:46:28.407Z,0.60
2019-05-09T05:48:57.938Z,0.70
2019-05-09T05:51:27.704Z,0.67
2019-05-09T05:53:57.478Z,0.60
2019-05-09T05:56:28.041Z,0.80
2019-05-09T05:58:58.206Z,0.73
2019-05-09T06:01:27.977Z,1.00
2019-05-09T06:03:58.630Z,0.63
2019-05-09T06:06:28.136Z,0.70
2019-05-09T06:08:58.083Z,0.70
2019-05-09T06:11:28.230Z,0.87
2019-05-09T06:14:06.252Z,0.70
2019-05-09T06:16:28.760Z,0.80
2019-05-09T06:18:58.736Z,0.80
2019-05-09T06:21:28.505Z,0.67
2019-05-09T06:23:58.521Z,0.70
2019-05-09T06:26:29.268Z,0.70
2019-05-09T06:28:58.997Z,0.60
2019-05-09T06:31:28.576Z,0.90
2019-05-09T06:33:58.304Z,0.80
2019-05-09T06:36:28.454Z,0.73
2019-05-09T06:38:58.747Z,0.80
2019-05-09T06:41:28.671Z,0.80
2019-05-09T06:44:14.290Z,0.77
2019-05-09T06:46:48.228Z,0.70
2019-05-09T06:49:28.398Z,0.90
2019-05-09T06:51:54.353Z,0.83
2019-05-09T06:54:23.733Z,0.80
2019-05-09T06:56:53.130Z,1.03
2019-05-09T06:59:22.261Z,0.70
2019-05-09T07:01:57.479Z,0.77
2019-05-09T07:04:47.459Z,0.67
2019-05-09T07:07:30.476Z,0.77
2019-05-09T07:10:01.900Z,0.83
2019-05-09T07:12:31.078Z,0.80
2019-05-09T07:15:00.419Z,0.53
2019-05-09T07:17:31.930Z,0.73
2019-05-09T07:20:01.898Z,1.10
2019-05-09T07:22:39.203Z,1.00
2019-05-09T07:25:29.901Z,0.80
2019-05-09T07:27:59.556Z,0.80
2019-05-09T07:30:48.117Z,0.70
2019-05-09T07:33:23.512Z,0.73
2019-05-09T07:35:52.982Z,0.97
2019-05-09T07:38:29.886Z,0.90
2019-05-09T07:41:00.068Z,0.60
2019-05-09T07:43:29.297Z,0.80
2019-05-09T07:46:08.664Z,0.80
2019-05-09T07:48:38.206Z,0.67
2019-05-09T07:51:08.111Z,0.73
2019-05-09T07:53:38.178Z,0.63
2019-05-09T07:56:08.147Z,0.60
2019-05-09T07:58:38.086Z,0.80
2019-05-09T08:01:08.474Z,0.80
2019-05-09T08:03:38.676Z,0.70
2019-05-09T08:06:08.859Z,0.70
2019-05-09T08:08:38.610Z,0.53
2019-05-09T08:11:08.938Z,0.70
2019-05-09T08:13:39.579Z,0.70
2019-05-09T08:16:13.973Z,0.70
2019-05-09T08:18:40.258Z,0.70
2019-05-09T08:21:10.069Z,0.60
2019-05-09T08:23:39.881Z,0.70
2019-05-09T08:26:09.384Z,0.70
2019-05-09T08:28:39.187Z,0.90
2019-05-09T08:31:08.596Z,0.70
2019-05-09T08:33:38.255Z,0.60
2019-05-09T08:36:08.962Z,0.70
2019-05-09T08:38:39.107Z,0.80
2019-05-09T08:41:18.414Z,0.80
2019-05-09T08:43:48.402Z,0.73
2019-05-09T08:46:18.194Z,0.63
2019-05-09T08:48:48.542Z,0.60
2019-05-09T08:51:23.668Z,0.80
2019-05-09T08:53:53.184Z,1.00
2019-05-09T08:56:22.590Z,0.70
2019-05-09T08:58:51.748Z,0.90
2019-05-09T09:01:30.639Z,0.80
2019-05-09T09:03:52.327Z,1.10
2019-05-09T09:06:22.388Z,1.30
2019-05-09T09:08:51.810Z,1.33
2019-05-09T09:11:21.557Z,0.77
2019-05-09T09:13:51.060Z,0.73
2019-05-09T09:16:22.570Z,1.00
2019-05-09T09:18:51.776Z,0.70
2019-05-09T09:21:21.121Z,0.70
2019-05-09T09:23:50.964Z,0.70
2019-05-09T09:26:20.126Z,0.73
2019-05-09T09:28:49.787Z,1.10
2019-05-09T09:31:18.858Z,0.90
2019-05-09T09:33:48.189Z,0.77
2019-05-09T09:36:18.000Z,0.60
2019-05-09T09:38:48.234Z,0.70
2019-05-09T09:41:18.294Z,0.80
2019-05-09T09:43:47.908Z,0.90
2019-05-09T09:46:18.277Z,0.60
2019-05-09T09:48:48.190Z,0.70
2019-05-09T09:51:18.587Z,0.70
2019-05-09T09:53:48.894Z,0.80
2019-05-09T09:56:22.375Z,0.90
2019-05-09T09:58:59.612Z,0.80
2019-05-09T10:04:16.628Z,0.70
2019-05-09T10:06:38.843Z,0.70
2019-05-09T10:09:09.537Z,0.80
2019-05-09T10:11:38.680Z,0.80
2019-05-09T10:14:10.095Z,0.70
2019-05-09T10:16:58.657Z,0.70
2019-05-09T10:19:37.896Z,0.60
2019-05-09T10:22:09.350Z,0.60
2019-05-09T10:24:38.997Z,0.70
2019-05-09T10:27:18.632Z,1.70
2019-05-09T10:29:48.161Z,0.80
2019-05-09T10:32:18.277Z,0.90
2019-05-09T10:34:48.843Z,0.83
2019-05-09T10:37:18.837Z,1.00
2019-05-09T10:39:49.204Z,1.00
2019-05-09T10:42:44.133Z,0.90
2019-05-09T10:45:40.838Z,3.17
2019-05-09T10:48:10.202Z,0.80
2019-05-09T10:50:44.208Z,1.23
2019-05-09T10:53:11.086Z,0.90
2019-05-09T10:55:41.031Z,0.67
2019-05-09T10:58:10.175Z,0.83
2019-05-09T11:00:39.819Z,0.90
2019-05-09T11:03:09.348Z,0.87
2019-05-09T11:05:39.100Z,0.53
2019-05-09T11:08:08.479Z,0.70
2019-05-09T11:10:39.612Z,0.70
2019-05-09T11:13:08.904Z,0.60
2019-05-09T11:15:38.452Z,0.70
2019-05-09T11:18:08.103Z,0.80
2019-05-09T11:20:38.830Z,0.60
2019-05-09T11:23:08.375Z,0.63
2019-05-09T11:25:38.167Z,0.70
2019-05-09T11:28:12.593Z,0.50
2019-05-09T11:30:38.801Z,0.60
2019-05-09T11:33:08.027Z,0.80
2019-05-09T11:35:38.148Z,0.70
2019-05-09T11:38:08.367Z,0.70
2019-05-09T11:40:38.060Z,0.70
2019-05-09T11:43:07.115Z,0.60
2019-05-09T11:45:38.729Z,0.80
2019-05-09T11:48:08.126Z,0.70
2019-05-09T11:50:38.872Z,0.60
2019-05-09T11:53:08.923Z,0.70
2019-05-09T11:55:43.177Z,0.60
2019-05-09T11:58:10.418Z,0.70
2019-05-09T12:00:39.731Z,0.70
2019-05-09T12:03:09.306Z,0.70
2019-05-09T12:05:39.353Z,0.70
2019-05-09T12:08:09.063Z,0.93
2019-05-09T12:10:38.412Z,0.70
2019-05-09T12:13:08.675Z,0.70
2019-05-09T12:15:39.013Z,1.00
2019-05-09T12:18:11.482Z,3.93
2019-05-09T12:20:39.376Z,2.47
2019-05-09T12:23:09.099Z,5.33
2019-05-09T12:25:38.884Z,0.90
2019-05-09T12:28:08.046Z,0.63
2019-05-09T12:30:37.955Z,0.93
2019-05-09T12:33:08.649Z,0.70
2019-05-09T12:35:38.680Z,0.80
2019-05-09T12:38:08.431Z,0.90
2019-05-09T12:40:38.855Z,1.00
2019-05-09T12:43:09.196Z,1.10
2019-05-09T12:50:38.840Z,0.73
2019-05-09T12:53:08.046Z,0.77
2019-05-09T12:55:38.518Z,0.63
2019-05-09T12:58:11.850Z,0.80
2019-05-09T13:00:41.193Z,0.67
2019-05-09T13:03:10.576Z,0.70
2019-05-09T13:05:39.947Z,0.80
2019-05-09T13:08:10.435Z,0.70
2019-05-09T13:10:40.185Z,1.17
2019-05-09T13:13:09.614Z,0.60
2019-05-09T13:15:45.146Z,0.73
2019-05-09T13:18:24.552Z,0.70
2019-05-09T13:20:45.300Z,0.80
2019-05-09T13:23:14.360Z,0.90
2019-05-09T13:25:43.409Z,1.00
2019-05-09T13:28:12.726Z,0.90
2019-05-09T13:30:42.087Z,0.70
2019-05-09T13:33:11.773Z,0.70
2019-05-09T13:35:41.183Z,0.70
2019-05-09T13:38:10.470Z,0.70
2019-05-09T13:40:39.893Z,0.83
2019-05-09T13:43:09.927Z,0.70
2019-05-09T13:45:39.416Z,0.70
2019-05-09T13:48:26.444Z,0.80
2019-05-09T13:50:39.952Z,0.67
2019-05-09T13:53:09.337Z,0.67
2019-05-09T13:55:38.397Z,0.63
2019-05-09T13:58:07.760Z,0.70
2019-05-09T14:00:39.077Z,0.60
2019-05-09T14:03:08.279Z,0.70
2019-05-09T14:05:37.905Z,0.90
2019-05-09T14:08:09.080Z,0.77
2019-05-09T14:10:38.942Z,0.70
2019-05-09T14:13:13.365Z,1.00
2019-05-09T14:15:39.232Z,0.77
2019-05-09T14:18:08.450Z,1.27
2019-05-09T14:20:38.224Z,0.73
2019-05-09T14:23:11.422Z,0.90
2019-05-09T14:25:38.318Z,0.60
2019-05-09T14:28:08.563Z,1.07
2019-05-09T14:30:39.045Z,0.70
2019-05-09T14:33:08.394Z,1.07
2019-05-09T14:35:38.681Z,1.10
2019-05-09T14:38:08.734Z,0.70
2019-05-09T14:40:38.655Z,0.70
2019-05-09T14:43:09.743Z,0.93
2019-05-09T14:45:39.009Z,1.30
2019-05-09T14:48:08.124Z,0.90
2019-05-09T14:50:38.186Z,1.20
2019-05-09T14:53:08.780Z,0.90
2019-05-09T14:55:38.788Z,0.70
2019-05-09T14:58:08.985Z,0.80
2019-05-09T15:00:38.679Z,0.80
2019-05-09T15:03:08.346Z,0.97
2019-05-09T15:05:37.954Z,1.10
2019-05-09T15:08:07.680Z,1.00
2019-05-09T15:10:38.421Z,0.80
2019-05-09T15:13:09.066Z,0.70
2019-05-09T15:15:38.496Z,0.80
2019-05-09T15:18:08.199Z,0.70
2019-05-09T15:20:38.156Z,0.60
2019-05-09T15:23:08.596Z,0.70
2019-05-09T15:25:38.308Z,0.77
2019-05-09T15:28:08.350Z,0.60
2019-05-09T15:30:38.494Z,0.80
2019-05-09T15:33:08.451Z,2.37
2019-05-09T15:35:39.125Z,0.80
2019-05-09T15:38:08.978Z,0.60
2019-05-09T15:40:38.703Z,0.80
2019-05-09T15:43:08.494Z,0.70
2019-05-09T15:45:45.882Z,0.87
2019-05-09T15:48:15.048Z,1.13
2019-05-09T15:50:44.608Z,0.90
2019-05-09T15:53:13.653Z,0.77
2019-05-09T15:55:42.709Z,0.93
2019-05-09T15:58:11.829Z,4.37
2019-05-09T16:00:41.126Z,2.00
2019-05-09T16:03:10.689Z,2.00
2019-05-09T16:05:40.263Z,2.40
2019-05-09T16:08:11.594Z,1.23
2019-05-09T16:10:40.938Z,1.53
2019-05-09T16:13:10.545Z,1.00
2019-05-09T16:15:39.600Z,0.90
2019-05-09T16:18:08.891Z,0.90
2019-05-09T16:20:41.149Z,1.20
2019-05-09T16:23:08.993Z,1.10
2019-05-09T16:25:38.772Z,0.80
2019-05-09T16:28:08.344Z,1.23
2019-05-09T16:30:38.495Z,1.23
2019-05-09T16:33:08.307Z,1.60
2019-05-09T16:35:38.154Z,1.13
2019-05-09T16:38:10.684Z,1.10
2019-05-09T16:40:38.801Z,1.20
2019-05-09T16:43:09.086Z,1.43
2019-05-09T16:45:38.675Z,2.57
2019-05-09T16:48:11.475Z,1.00
2019-05-09T16:50:56.074Z,1.00
2019-05-09T16:53:10.016Z,1.00
2019-05-09T16:55:40.156Z,1.20
2019-05-09T16:58:09.254Z,0.90
2019-05-09T17:00:44.706Z,0.93
2019-05-09T17:03:14.084Z,0.73
2019-05-09T17:05:43.530Z,0.80
2019-05-09T17:08:12.578Z,0.93
2019-05-09T17:10:41.968Z,0.80
2019-05-09T17:13:11.391Z,0.80
2019-05-09T17:15:40.454Z,0.93
2019-05-09T17:18:10.154Z,0.80
2019-05-09T17:21:17.656Z,0.83
2019-05-09T17:23:38.482Z,1.00
2019-05-09T17:26:08.278Z,1.10
2019-05-09T17:28:37.697Z,1.20
2019-05-09T17:31:08.590Z,0.80
2019-05-09T17:33:38.523Z,0.93
2019-05-09T17:36:07.584Z,0.93
2019-05-09T17:38:38.320Z,0.80
2019-05-09T17:41:08.330Z,0.80
2019-05-09T17:43:38.490Z,1.00
2019-05-09T17:46:07.733Z,0.93
2019-05-09T17:48:38.624Z,1.00
2019-05-09T17:51:08.456Z,1.20
2019-05-09T17:53:37.643Z,1.40
2019-05-09T17:56:10.858Z,1.00
2019-05-09T17:58:38.216Z,0.80
2019-05-09T18:01:07.959Z,1.10
2019-05-09T18:03:38.392Z,2.07
2019-05-09T18:06:08.405Z,1.80
2019-05-09T18:08:37.886Z,1.10
2019-05-09T18:11:09.144Z,1.00
2019-05-09T18:13:38.684Z,0.83
2019-05-09T18:16:08.488Z,0.80
2019-05-09T18:18:38.881Z,1.17
2019-05-09T18:21:09.224Z,0.80
2019-05-09T18:23:38.847Z,0.70
2019-05-09T18:26:08.093Z,0.90
2019-05-09T18:28:38.542Z,0.73
2019-05-09T18:31:08.088Z,0.73
2019-05-09T18:33:41.436Z,0.70
2019-05-09T18:36:11.069Z,0.70
2019-05-09T18:38:40.133Z,0.90
2019-05-09T18:41:10.217Z,0.77
2019-05-09T18:43:39.805Z,1.07
2019-05-09T18:46:09.184Z,0.90
2019-05-09T18:48:38.907Z,1.20
2019-05-09T18:51:08.062Z,1.00
2019-05-09T18:53:38.218Z,1.00
2019-05-09T18:56:07.248Z,1.10
2019-05-09T18:58:36.558Z,1.23
2019-05-09T19:01:06.621Z,1.00
2019-05-09T19:03:36.228Z,1.10
2019-05-09T19:06:05.643Z,1.20
2019-05-09T19:08:35.053Z,0.90
2019-05-09T19:11:04.460Z,1.10
2019-05-09T19:13:33.867Z,1.27
2019-05-09T19:16:13.178Z,1.20
2019-05-09T19:18:55.129Z,0.90
2019-05-09T19:21:28.361Z,1.43
2019-05-09T19:23:57.780Z,1.70
2019-05-09T19:26:36.334Z,2.07
2019-05-09T19:29:09.100Z,1.47
2019-05-09T19:31:38.946Z,1.43
2019-05-09T19:34:08.224Z,1.70
2019-05-09T19:36:37.633Z,1.50
2019-05-09T19:39:12.728Z,1.00
2019-05-09T19:41:42.125Z,2.10
2019-05-09T19:44:11.168Z,2.17
2019-05-09T19:46:40.213Z,1.60
2019-05-09T19:49:09.613Z,1.90
2019-05-09T19:51:39.001Z,2.00
2019-05-09T19:54:08.062Z,1.00
2019-05-09T19:56:37.105Z,1.27
2019-05-09T19:59:07.849Z,1.43
2019-05-09T20:01:37.743Z,1.53
2019-05-09T20:04:07.346Z,1.17
2019-05-09T20:06:55.499Z,1.40
2019-05-09T20:09:37.489Z,1.20
2019-05-09T20:12:25.617Z,1.10
2019-05-09T20:14:54.719Z,1.43
2019-05-09T20:17:23.824Z,1.13
2019-05-09T20:19:53.235Z,1.00
2019-05-09T20:22:22.583Z,1.20
2019-05-09T20:24:52.351Z,1.97
2019-05-09T20:27:21.448Z,1.27
2019-05-09T20:29:50.501Z,1.50
2019-05-09T20:32:19.919Z,1.20
2019-05-09T20:34:49.421Z,1.10
2019-05-09T20:37:19.103Z,0.83
2019-05-09T20:39:48.370Z,0.90
2019-05-09T20:42:18.213Z,0.90
2019-05-09T20:44:47.712Z,1.10
2019-05-09T20:47:17.221Z,1.63
2019-05-09T20:49:47.029Z,1.90
2019-05-09T20:52:16.257Z,1.33
2019-05-09T20:54:46.147Z,1.10
2019-05-09T20:57:15.958Z,1.23
2019-05-09T20:59:45.193Z,1.03
2019-05-09T21:02:14.732Z,0.83
2019-05-09T21:04:44.262Z,4.30
2019-05-09T21:07:13.566Z,1.87
2019-05-09T21:09:43.374Z,0.90
2019-05-09T21:12:12.881Z,1.43
2019-05-09T21:14:42.791Z,1.53
2019-05-09T21:17:12.298Z,0.93
2019-05-09T21:19:41.852Z,1.40
2019-05-09T21:22:11.077Z,1.93
2019-05-09T21:24:41.012Z,1.60
2019-05-09T21:27:10.521Z,1.33
2019-05-09T21:29:40.125Z,0.93
2019-05-09T21:32:09.444Z,0.70
2019-05-09T21:34:39.237Z,1.20
2019-05-09T21:37:09.863Z,0.93
2019-05-09T21:39:39.274Z,0.93
2019-05-09T21:42:08.668Z,0.80
2019-05-09T21:44:38.073Z,1.00
2019-05-09T21:47:07.812Z,1.07
2019-05-09T21:49:37.389Z,0.90
2019-05-09T21:52:06.874Z,0.67
2019-05-09T21:54:36.503Z,0.80
2019-05-09T21:57:05.553Z,0.90
2019-05-09T21:59:35.201Z,0.80
2019-05-09T22:02:04.372Z,0.83
2019-05-09T22:04:33.423Z,0.97
2019-05-09T22:07:02.463Z,0.80
2019-05-09T22:09:31.803Z,0.70
2019-05-09T22:12:01.599Z,0.80
2019-05-09T22:14:30.654Z,0.87
2019-05-09T22:17:03.801Z,0.70
2019-05-09T22:19:32.856Z,0.80
2019-05-09T22:22:02.482Z,0.97
2019-05-09T22:24:32.200Z,0.77
2019-05-09T22:27:01.521Z,0.80
2019-05-09T22:29:31.240Z,0.77
2019-05-09T22:32:00.601Z,1.00
2019-05-09T22:34:29.925Z,0.73
2019-05-09T22:36:59.305Z,0.70
2019-05-09T22:39:29.013Z,1.10
2019-05-09T22:41:58.753Z,0.70
2019-05-09T22:44:28.147Z,0.93
2019-05-09T22:46:57.557Z,0.87
2019-05-09T22:49:26.597Z,0.87
2019-05-09T22:51:55.660Z,1.30
2019-05-09T22:54:25.584Z,0.80
2019-05-09T22:56:54.892Z,0.90
2019-05-09T22:59:24.229Z,0.77
2019-05-09T23:01:53.278Z,0.70
2019-05-09T23:04:22.626Z,1.07
2019-05-09T23:06:51.708Z,0.90
2019-05-09T23:09:20.757Z,0.90
2019-05-09T23:11:49.807Z,0.77
2019-05-09T23:14:18.856Z,0.90
2019-05-09T23:16:50.495Z,1.00
2019-05-09T23:19:19.654Z,0.70
2019-05-09T23:21:49.072Z,0.97
2019-05-09T23:24:28.156Z,1.30
2019-05-09T23:26:51.337Z,1.33
2019-05-09T23:29:21.046Z,1.07
2019-05-09T23:32:14.254Z,0.80
2019-05-09T23:34:43.609Z,0.70
2019-05-09T23:37:12.672Z,1.03
2019-05-09T23:39:44.561Z,0.73
2019-05-09T23:42:13.604Z,0.80
2019-05-09T23:44:43.267Z,0.80
2019-05-09T23:47:13.077Z,0.80
2019-05-09T23:49:43.080Z,0.93
2019-05-09T23:52:12.113Z,1.10
2019-05-09T23:54:59.512Z,1.10
2019-05-09T23:57:46.403Z,1.07
